createdAt,value
2023-01-29T00:09:05.757Z,99922.84
2023-01-29T00:19:27.415Z,99921.13
2023-01-29T00:30:08.320Z,99913.69
2023-01-29T00:40:49.495Z,99924.28
2023-01-29T00:51:10.713Z,99926.66
2023-01-29T01:01:50.577Z,99919.00
2023-01-29T01:12:11.613Z,99941.09
2023-01-29T01:22:33.039Z,99932.75
2023-01-29T01:32:54.824Z,99926.94
2023-01-29T01:43:15.976Z,99937.00
2023-01-29T01:53:56.433Z,99933.66
2023-01-29T02:04:42.546Z,99927.88
2023-01-29T02:15:06.570Z,99953.47
2023-01-29T02:26:01.803Z,99944.41
2023-01-29T02:36:38.186Z,99946.09
2023-01-29T02:47:43.034Z,99950.38
2023-01-29T02:58:21.276Z,99944.50
2023-01-29T03:08:50.025Z,99945.19
2023-01-29T03:19:26.388Z,99947.69
2023-01-29T03:30:10.525Z,99937.00
2023-01-29T03:41:25.639Z,99946.88
2023-01-29T03:52:35.394Z,99948.53
2023-01-29T04:03:25.948Z,99952.84
2023-01-29T04:13:48.886Z,99954.66
2023-01-29T04:24:13.887Z,99957.25
2023-01-29T04:34:52.345Z,99939.97
2023-01-29T04:45:43.569Z,99939.13
2023-01-29T04:56:30.939Z,99951.50
2023-01-29T05:06:53.025Z,99959.84
2023-01-29T05:17:18.440Z,99949.13
2023-01-29T05:27:57.872Z,99964.75
2023-01-29T05:38:20.263Z,99965.63
2023-01-29T05:48:41.465Z,99956.63
2023-01-29T05:59:03.194Z,99964.00
2023-01-29T06:09:24.922Z,99968.06
2023-01-29T06:19:46.315Z,99968.97
2023-01-29T06:30:08.419Z,99966.63
2023-01-29T06:40:29.628Z,99974.16
2023-01-29T06:50:51.745Z,99975.84
2023-01-29T07:01:25.494Z,99970.19
2023-01-29T07:11:54.751Z,99965.25
2023-01-29T07:22:16.377Z,99972.78
2023-01-29T07:32:37.905Z,99980.19
2023-01-29T07:43:05.486Z,99976.06
2023-01-29T07:53:29.076Z,99976.06
2023-01-29T08:03:51.414Z,99971.06
2023-01-29T08:14:13.203Z,99976.84
2023-01-29T08:24:47.637Z,99979.28
2023-01-29T08:35:14.982Z,99980.13
2023-01-29T08:45:41.231Z,99977.59
2023-01-29T08:56:02.449Z,99965.06
2023-01-29T09:06:24.017Z,99962.53
2023-01-29T09:16:45.843Z,99957.44
2023-01-29T09:27:07.322Z,99939.09
2023-01-29T09:37:28.573Z,99944.00
2023-01-29T09:47:49.938Z,99930.63
2023-01-29T09:58:40.217Z,99926.31
2023-01-29T10:09:13.803Z,99913.84
2023-01-29T10:19:37.965Z,99906.38
2023-01-29T10:30:01.132Z,99896.47
2023-01-29T10:40:32.788Z,99885.38
2023-01-29T10:51:15.341Z,99860.31
2023-01-29T11:01:36.516Z,99856.16
2023-01-29T11:12:03.977Z,99842.00
2023-01-29T11:22:30.716Z,99832.75
2023-01-29T11:33:09.837Z,99836.03
2023-01-29T11:43:32.493Z,99836.03
2023-01-29T11:54:01.363Z,99832.81
2023-01-29T12:04:25.660Z,99823.56
2023-01-29T12:14:38.840Z,99825.94
2023-01-29T12:25:48.353Z,99818.44
2023-01-29T12:36:41.485Z,99816.69
2023-01-29T12:47:07.170Z,99814.19
2023-01-29T12:58:23.651Z,99803.31
2023-01-29T13:08:54.824Z,99805.97
2023-01-29T13:19:27.505Z,99801.97
2023-01-29T13:29:49.432Z,99809.44
2023-01-29T13:40:24.241Z,99802.91
2023-01-29T13:50:46.783Z,99808.78
2023-01-29T14:01:08.087Z,99801.38
2023-01-29T14:11:35.805Z,99796.41
2023-01-29T14:21:59.122Z,99787.38
2023-01-29T14:32:22.081Z,99786.63
2023-01-29T14:43:05.628Z,99795.03
2023-01-29T14:53:44.815Z,99805.06
2023-01-29T15:04:12.210Z,99806.75
2023-01-29T15:14:52.600Z,99806.78
2023-01-29T15:25:15.708Z,99816.75
2023-01-29T15:35:41.864Z,99810.09
2023-01-29T15:46:25.697Z,99820.06
2023-01-29T15:56:51.647Z,99804.28
2023-01-29T16:07:12.975Z,99819.19
2023-01-29T16:17:35.460Z,99809.22
2023-01-29T16:27:58.525Z,99818.41
2023-01-29T16:38:31.538Z,99825.88
2023-01-29T16:48:53.826Z,99816.75
2023-01-29T16:59:41.814Z,99827.63
2023-01-29T17:10:06.695Z,99823.44
2023-01-29T17:20:28.274Z,99822.66
2023-01-29T17:31:04.992Z,99822.66
2023-01-29T17:41:31.321Z,99807.78
2023-01-29T17:51:55.324Z,99792.81
2023-01-29T18:02:28.755Z,99789.50
2023-01-29T18:12:51.530Z,99787.03
2023-01-29T18:23:13.545Z,99778.81
2023-01-29T18:33:36.652Z,99778.03
2023-01-29T18:43:57.999Z,99782.22
2023-01-29T18:54:21.453Z,99779.75
2023-01-29T19:04:43.289Z,99783.94
2023-01-29T19:14:46.022Z,99798.09
2023-01-29T19:25:08.658Z,99796.47
2023-01-29T19:35:30.354Z,99786.56
2023-01-29T19:45:59.232Z,99778.28
2023-01-29T19:56:20.851Z,99758.41
2023-01-29T20:06:42.255Z,99761.72
2023-01-29T20:17:05.047Z,99751.81
2023-01-29T20:59:11.800Z,99755.97
2023-01-29T21:09:33.518Z,99763.41
2023-01-29T21:19:55.002Z,99759.28
2023-01-29T21:30:18.059Z,99740.19
2023-01-29T21:40:39.606Z,99738.56
2023-01-29T21:51:00.809Z,99734.44
2023-01-29T22:01:37.899Z,99727.00
2023-01-29T22:12:00.005Z,99721.22
2023-01-29T22:22:18.310Z,99720.38
2023-01-29T22:32:39.708Z,99707.13
2023-01-29T22:43:01.008Z,99697.16
2023-01-29T22:56:01.542Z,99698.00
2023-01-29T23:06:23.998Z,99673.13
2023-01-29T23:16:45.548Z,99669.84
2023-01-29T23:42:33.649Z,99627.56
2023-01-29T23:52:54.802Z,99613.50
